Time;durP1;ratioP1;P1;durP2;ratioP2;P2;SDS_P1;SDS_P2;PMS_P1;PMS_P2;Temp;Humidity;BMP_temperature;BMP_pressure;BME280_temperature;BME280_humidity;BME280_pressure;Samples;Min_cycle;Max_cycle;Signal;HPM_P1;HPM_P2
2023/02/27 14:59:33;;;;;;;3.70;1.53;;;5.90;23.50;;;;;;5165279;23;20496;-73
2023/02/27 15:02:23;;;;;;;2.65;2.08;;;5.50;23.70;;;;;;4963673;28;20589;-73
2023/02/27 15:05:16;;;;;;;2.97;1.70;;;5.40;25.00;;;;;;4965279;28;20336;-72
2023/02/27 15:08:01;;;;;;;1.90;1.30;;;5.40;24.70;;;;;;4967598;28;21634;-72
2023/02/27 15:10:48;;;;;;;2.47;1.30;;;5.30;25.50;;;;;;4982278;23;20527;-72
2023/02/27 15:13:36;;;;;;;5.10;1.53;;;5.30;25.20;;;;;;4966950;28;20529;-72
2023/02/27 15:16:36;;;;;;;3.30;1.90;;;5.60;24.10;;;;;;4967034;28;20481;-72
2023/02/27 15:19:24;;;;;;;2.67;1.57;;;6.30;23.70;;;;;;4968572;28;20213;-72
2023/02/27 15:22:17;;;;;;;2.20;1.35;;;6.70;22.10;;;;;;4971557;28;21082;-72
2023/02/27 15:25:05;;;;;;;1.83;1.35;;;6.80;22.20;;;;;;4965257;28;20338;-72
2023/02/27 15:27:51;;;;;;;3.40;1.30;;;7.20;21.80;;;;;;4969764;28;20703;-72
2023/02/27 15:30:37;;;;;;;2.13;1.50;;;7.80;20.80;;;;;;4965586;28;21116;-71
2023/02/27 15:33:28;;;;;;;2.63;1.60;;;8.40;19.80;;;;;;4968130;28;20593;-72
2023/02/27 15:36:19;;;;;;;1.97;1.23;;;8.90;18.80;;;;;;4965195;28;20442;-71
2023/02/27 15:39:14;;;;;;;3.43;1.80;;;8.80;18.90;;;;;;4970786;28;20452;-71
2023/02/27 15:42:03;;;;;;;4.40;1.60;;;8.30;19.90;;;;;;4965254;28;20816;-71
2023/02/27 15:44:49;;;;;;;2.50;1.70;;;7.70;21.00;;;;;;4966657;28;20456;-71
2023/02/27 15:47:35;;;;;;;1.80;1.33;;;7.50;22.00;;;;;;4969315;28;20572;-71
2023/02/27 15:50:31;;;;;;;4.57;1.50;;;7.10;22.40;;;;;;4971168;28;20469;-71
2023/02/27 15:53:19;;;;;;;2.83;1.40;;;6.60;23.20;;;;;;4956286;28;21678;-71
2023/02/27 15:56:08;;;;;;;2.67;1.73;;;6.20;23.70;;;;;;4970336;28;21072;-71
2023/02/27 15:58:56;;;;;;;2.38;1.55;;;5.80;23.60;;;;;;4967664;28;20345;-72
2023/02/27 16:01:42;;;;;;;8.02;1.70;;;5.50;24.30;;;;;;4961083;28;20244;-73
2023/02/27 16:04:28;;;;;;;3.43;1.80;;;5.30;25.20;;;;;;4963067;28;20301;-73
2023/02/27 16:07:20;;;;;;;3.30;1.73;;;5.10;25.00;;;;;;4970926;28;20620;-71
2023/02/27 16:10:16;;;;;;;4.85;1.95;;;4.90;25.80;;;;;;4970446;28;20472;-71
2023/02/27 16:13:20;;;;;;;3.65;1.90;;;4.80;25.70;;;;;;4959532;28;20217;-72
2023/02/27 16:16:22;;;;;;;2.50;1.50;;;4.80;26.10;;;;;;4967393;28;20201;-71
2023/02/27 16:19:25;;;;;;;5.50;1.70;;;4.80;24.40;;;;;;4960117;28;20216;-71
2023/02/27 16:22:15;;;;;;;3.33;1.50;;;4.70;25.30;;;;;;4965541;28;20232;-71
2023/02/27 16:25:10;;;;;;;3.25;1.55;;;4.60;25.40;;;;;;4970147;28;20352;-71
2023/02/27 16:27:56;;;;;;;3.15;1.20;;;4.60;24.80;;;;;;4967760;28;20869;-72
2023/02/27 16:30:42;;;;;;;2.20;1.45;;;4.60;24.50;;;;;;4964960;28;20240;-70
2023/02/27 16:33:32;;;;;;;3.20;1.40;;;4.60;24.10;;;;;;4959576;28;20574;-71
2023/02/27 16:36:20;;;;;;;3.25;1.25;;;4.50;25.00;;;;;;4967688;28;20440;-72
2023/02/27 16:39:07;;;;;;;2.38;1.67;;;4.50;24.90;;;;;;4973859;28;20688;-72
2023/02/27 16:41:56;;;;;;;1.95;1.30;;;4.50;25.90;;;;;;4969769;28;20384;-71
2023/02/27 16:44:42;;;;;;;5.47;1.83;;;4.60;25.30;;;;;;4967104;28;20213;-71
2023/02/27 16:47:28;;;;;;;2.88;2.03;;;4.50;25.00;;;;;;4964595;28;20830;-71
2023/02/27 16:50:19;;;;;;;2.40;1.60;;;4.40;25.80;;;;;;4968615;28;20337;-72
2023/02/27 16:53:05;;;;;;;2.67;1.67;;;4.40;25.80;;;;;;4968103;28;20329;-71
2023/02/27 16:55:51;;;;;;;2.70;1.65;;;4.30;25.70;;;;;;4964303;28;20224;-72
2023/02/27 16:58:37;;;;;;;2.20;1.40;;;4.30;24.70;;;;;;4968139;28;20259;-71
2023/02/27 17:01:23;;;;;;;2.42;1.50;;;4.20;24.10;;;;;;4961855;28;20236;-71
2023/02/27 17:04:08;;;;;;;3.20;1.40;;;4.20;24.70;;;;;;4963581;28;20578;-72
2023/02/27 17:06:56;;;;;;;2.85;1.45;;;4.10;24.40;;;;;;4959098;28;20678;-72
2023/02/27 17:09:41;;;;;;;3.03;2.15;;;4.10;25.10;;;;;;4965890;28;20564;-71
2023/02/27 17:12:27;;;;;;;2.80;1.70;;;4.10;25.10;;;;;;4964550;28;20204;-72
2023/02/27 17:15:15;;;;;;;2.92;1.80;;;4.10;25.30;;;;;;4962286;28;20204;-71
2023/02/27 17:18:01;;;;;;;3.58;2.20;;;4.00;25.50;;;;;;4960775;28;20342;-72
2023/02/27 17:20:46;;;;;;;2.55;1.50;;;4.00;25.50;;;;;;4965110;28;20224;-72
2023/02/27 17:23:32;;;;;;;6.38;1.90;;;4.00;26.40;;;;;;4969275;28;20615;-72
2023/02/27 17:26:18;;;;;;;6.63;2.03;;;3.90;26.40;;;;;;4969351;28;20233;-71
2023/02/27 17:29:04;;;;;;;2.63;1.95;;;3.90;26.10;;;;;;4967665;28;20217;-72
2023/02/27 17:31:51;;;;;;;2.65;1.70;;;4.00;25.70;;;;;;4975608;28;20265;-72
2023/02/27 17:34:37;;;;;;;2.55;1.73;;;3.80;26.20;;;;;;4965565;28;20288;-71
2023/02/27 17:37:23;;;;;;;2.25;1.80;;;3.70;26.10;;;;;;4966848;28;20283;-72
2023/02/27 17:40:11;;;;;;;2.50;1.60;;;3.70;25.30;;;;;;4971543;28;20213;-71
2023/02/27 17:42:56;;;;;;;2.95;1.77;;;3.70;25.30;;;;;;4963460;28;20606;-72
2023/02/27 17:45:42;;;;;;;3.38;1.90;;;3.80;25.40;;;;;;4964563;28;20673;-72
2023/02/27 17:48:29;;;;;;;2.67;1.70;;;3.70;25.90;;;;;;4967796;28;20213;-72
2023/02/27 17:51:16;;;;;;;2.22;1.60;;;3.60;26.50;;;;;;4964777;28;20633;-72
2023/02/27 17:54:03;;;;;;;2.05;1.65;;;3.60;26.30;;;;;;4967590;28;20287;-72
2023/02/27 17:56:49;;;;;;;3.47;2.03;;;3.60;26.80;;;;;;4961943;28;20225;-71
2023/02/27 17:59:34;;;;;;;2.40;1.90;;;3.50;27.50;;;;;;4970561;28;20696;-71
2023/02/27 18:02:20;;;;;;;5.13;2.13;;;3.50;27.40;;;;;;4966879;28;20232;-72
2023/02/27 18:05:08;;;;;;;3.67;1.80;;;3.50;27.80;;;;;;4969432;28;20209;-72
2023/02/27 18:07:53;;;;;;;2.97;1.70;;;3.50;27.50;;;;;;4968037;28;20371;-71
2023/02/27 18:10:39;;;;;;;5.45;1.95;;;3.50;27.90;;;;;;4971450;28;20244;-71
2023/02/27 18:13:26;;;;;;;4.50;2.13;;;3.50;27.50;;;;;;4967084;28;20212;-72
2023/02/27 18:16:12;;;;;;;3.55;1.90;;;3.40;28.00;;;;;;4965414;28;20610;-71
2023/02/27 18:18:57;;;;;;;3.22;2.05;;;3.40;27.60;;;;;;4972069;28;20766;-72
2023/02/27 18:21:45;;;;;;;3.78;2.00;;;3.40;27.70;;;;;;4966869;28;20231;-72
2023/02/27 18:24:31;;;;;;;4.57;2.10;;;3.40;27.60;;;;;;4971314;28;20226;-72
2023/02/27 18:27:17;;;;;;;5.47;2.85;;;3.40;28.10;;;;;;4966267;28;20228;-72
2023/02/27 18:30:03;;;;;;;3.50;1.88;;;3.40;28.10;;;;;;4967831;28;20331;-72
2023/02/27 18:32:48;;;;;;;3.30;2.15;;;3.30;29.00;;;;;;4963341;28;20209;-72
2023/02/27 18:35:34;;;;;;;6.15;3.30;;;3.30;28.60;;;;;;4962774;28;20296;-72
2023/02/27 18:38:21;;;;;;;5.38;2.90;;;3.40;28.80;;;;;;4970751;28;20694;-72
2023/02/27 18:41:08;;;;;;;4.80;2.28;;;3.40;28.90;;;;;;4969430;28;20252;-71
2023/02/27 18:43:53;;;;;;;4.18;2.00;;;3.30;29.40;;;;;;4972058;28;20204;-72
2023/02/27 18:46:39;;;;;;;2.40;1.70;;;3.30;29.90;;;;;;4960790;28;20358;-72
2023/02/27 18:49:25;;;;;;;3.38;2.35;;;3.20;30.60;;;;;;4965258;28;20412;-72
2023/02/27 18:52:11;;;;;;;4.05;2.50;;;3.10;30.80;;;;;;4967517;28;20606;-71
2023/02/27 18:54:58;;;;;;;3.25;2.08;;;3.20;31.30;;;;;;4961702;28;20296;-71
2023/02/27 18:57:45;;;;;;;3.65;2.10;;;3.10;31.80;;;;;;4970871;28;20217;-71
2023/02/27 19:00:30;;;;;;;3.45;2.65;;;3.10;32.50;;;;;;4967474;28;20537;-71
2023/02/27 19:03:16;;;;;;;4.13;2.10;;;3.10;33.00;;;;;;4968029;28;20220;-71
2023/02/27 19:06:02;;;;;;;4.82;2.28;;;3.10;33.00;;;;;;4959286;28;20982;-71
2023/02/27 19:08:47;;;;;;;4.18;2.33;;;3.10;33.60;;;;;;4967203;28;20216;-71
2023/02/27 19:11:35;;;;;;;5.72;2.40;;;3.20;33.60;;;;;;4971900;28;20236;-71
2023/02/27 19:14:20;;;;;;;4.53;2.58;;;3.10;34.00;;;;;;4972350;28;20273;-71
2023/02/27 19:17:07;;;;;;;5.60;2.95;;;3.10;34.80;;;;;;4971426;28;20272;-72
2023/02/27 19:19:53;;;;;;;4.07;2.50;;;3.10;35.10;;;;;;4971181;28;20228;-71
2023/02/27 19:22:39;;;;;;;3.47;2.30;;;3.20;35.40;;;;;;4969254;28;20227;-71
2023/02/27 19:25:25;;;;;;;3.15;2.00;;;3.10;35.90;;;;;;4966529;28;20216;-71
2023/02/27 19:28:12;;;;;;;3.72;2.78;;;3.10;36.90;;;;;;4971695;28;20300;-71
2023/02/27 19:30:58;;;;;;;2.88;2.03;;;3.10;36.90;;;;;;4964166;28;20303;-71
2023/02/27 19:33:44;;;;;;;2.78;1.73;;;3.00;37.70;;;;;;4978842;23;20211;-71
2023/02/27 19:36:30;;;;;;;3.03;2.17;;;3.10;37.90;;;;;;4951841;28;20579;-71
2023/02/27 19:39:16;;;;;;;5.05;1.95;;;3.10;37.50;;;;;;4950733;29;20222;-71
2023/02/27 19:42:01;;;;;;;3.80;2.10;;;3.20;37.00;;;;;;4953584;29;20206;-71
2023/02/27 19:44:48;;;;;;;3.90;1.98;;;3.20;37.00;;;;;;4939243;29;20367;-71
2023/02/27 19:47:36;;;;;;;3.22;1.83;;;3.20;37.10;;;;;;4980312;23;20233;-73
2023/02/27 19:50:21;;;;;;;5.28;1.70;;;3.20;37.00;;;;;;4966967;28;20265;-73
2023/02/27 19:53:07;;;;;;;2.55;1.60;;;3.30;37.10;;;;;;4966872;28;20215;-73
2023/02/27 19:55:58;;;;;;;3.33;1.95;;;3.30;37.10;;;;;;4971725;28;20560;-73
2023/02/27 19:58:44;;;;;;;3.58;2.00;;;3.30;37.10;;;;;;4971141;28;20209;-73
2023/02/27 20:01:35;;;;;;;8.40;2.53;;;3.30;37.20;;;;;;4967788;28;20329;-73
2023/02/27 20:04:20;;;;;;;2.30;2.00;;;3.30;37.20;;;;;;4966895;28;20213;-73
2023/02/27 20:07:06;;;;;;;3.58;2.40;;;3.30;37.20;;;;;;4970083;28;20241;-71
2023/02/27 20:09:51;;;;;;;4.20;2.35;;;3.30;37.10;;;;;;4968410;28;20276;-73
2023/02/27 20:12:37;;;;;;;3.63;2.20;;;3.30;37.60;;;;;;4966925;28;20211;-72
2023/02/27 20:15:23;;;;;;;2.85;1.90;;;3.20;37.90;;;;;;4965206;28;20210;-72
2023/02/27 20:18:10;;;;;;;3.13;2.03;;;3.20;37.60;;;;;;4967169;28;20204;-72
2023/02/27 20:21:01;;;;;;;5.82;2.83;;;3.20;38.00;;;;;;4962455;28;20284;-72
2023/02/27 20:23:47;;;;;;;4.70;2.88;;;3.10;38.70;;;;;;4964985;28;20213;-73
2023/02/27 20:26:34;;;;;;;3.80;2.10;;;3.10;38.20;;;;;;4966603;28;20244;-72
2023/02/27 20:29:22;;;;;;;8.55;2.22;;;3.00;39.20;;;;;;4966800;28;20244;-72
2023/02/27 20:32:07;;;;;;;3.95;2.45;;;2.90;39.90;;;;;;4963309;28;20213;-72
2023/02/27 20:34:55;;;;;;;3.42;2.03;;;2.90;40.40;;;;;;4965651;28;20694;-72
2023/02/27 20:37:41;;;;;;;3.50;3.10;;;2.90;40.30;;;;;;4968358;28;20225;-73
2023/02/27 20:40:27;;;;;;;4.70;2.92;;;3.00;40.20;;;;;;4969201;28;20208;-73
2023/02/27 20:43:13;;;;;;;5.68;3.90;;;2.90;40.30;;;;;;4964159;28;20574;-73
2023/02/27 20:46:02;;;;;;;3.85;2.88;;;2.90;40.80;;;;;;4966063;28;20290;-73
2023/02/27 20:48:48;;;;;;;4.82;2.80;;;2.80;41.80;;;;;;4965546;28;20217;-73
2023/02/27 20:51:38;;;;;;;4.13;2.60;;;2.70;43.30;;;;;;4963940;28;20213;-73
2023/02/27 20:54:23;;;;;;;10.45;4.40;;;2.70;43.50;;;;;;4966072;28;20208;-72
2023/02/27 20:57:09;;;;;;;7.97;3.75;;;2.70;43.70;;;;;;4967708;28;20537;-73
2023/02/27 20:59:54;;;;;;;6.32;3.63;;;2.80;44.50;;;;;;4967070;28;20240;-72
2023/02/27 21:02:40;;;;;;;5.53;3.80;;;2.70;44.80;;;;;;4965072;28;20208;-73
2023/02/27 21:05:26;;;;;;;4.45;2.60;;;2.80;45.20;;;;;;4966229;28;20329;-73
2023/02/27 21:08:13;;;;;;;5.03;2.65;;;2.80;44.50;;;;;;4965265;28;20235;-73
2023/02/27 21:10:59;;;;;;;4.90;2.95;;;2.70;45.20;;;;;;4961826;28;20538;-72
2023/02/27 21:13:46;;;;;;;3.60;2.30;;;2.80;44.70;;;;;;4966160;28;20217;-73
2023/02/27 21:16:32;;;;;;;5.80;2.72;;;2.70;45.30;;;;;;4967209;28;20235;-73
2023/02/27 21:19:18;;;;;;;3.78;2.30;;;2.70;44.80;;;;;;4966878;28;20375;-73
2023/02/27 21:22:03;;;;;;;3.15;2.05;;;2.80;44.80;;;;;;4958695;28;20200;-73
2023/02/27 21:24:52;;;;;;;3.05;2.35;;;2.70;44.80;;;;;;4968136;28;20209;-73
2023/02/27 21:27:37;;;;;;;5.00;3.00;;;2.70;45.40;;;;;;4964360;28;20769;-73
2023/02/27 21:30:23;;;;;;;6.80;3.25;;;2.60;46.40;;;;;;4964974;28;20205;-72
2023/02/27 21:33:09;;;;;;;6.07;2.97;;;2.70;46.90;;;;;;4966363;28;20209;-73
2023/02/27 21:35:54;;;;;;;7.65;3.42;;;2.70;46.60;;;;;;4962365;28;20211;-73
2023/02/27 21:38:40;;;;;;;3.40;2.65;;;2.80;46.40;;;;;;4968047;28;20607;-73
2023/02/27 21:41:28;;;;;;;5.25;3.25;;;2.90;46.50;;;;;;4958969;28;20303;-72
2023/02/27 21:44:15;;;;;;;4.97;3.55;;;2.90;45.00;;;;;;4968266;28;20204;-72
2023/02/27 21:47:08;;;;;;;2.90;2.53;;;2.90;46.20;;;;;;4965978;28;20236;-71
2023/02/27 21:49:54;;;;;;;6.00;3.00;;;2.80;46.40;;;;;;4966315;28;20215;-73
2023/02/27 21:52:39;;;;;;;4.75;3.15;;;2.80;47.30;;;;;;4964955;28;20215;-74
2023/02/27 21:55:25;;;;;;;4.20;2.60;;;2.80;47.80;;;;;;4970628;28;20212;-73
2023/02/27 21:58:12;;;;;;;4.15;3.17;;;2.70;47.70;;;;;;4968557;28;20200;-73
2023/02/27 22:00:58;;;;;;;4.65;2.67;;;2.70;47.00;;;;;;4959427;28;20208;-72
2023/02/27 22:03:44;;;;;;;4.63;2.75;;;2.70;47.60;;;;;;4962245;28;20221;-72
2023/02/27 22:06:31;;;;;;;4.65;2.97;;;2.70;48.50;;;;;;4964282;28;20324;-72
2023/02/27 22:09:17;;;;;;;4.13;2.65;;;2.60;47.90;;;;;;4968002;28;20248;-73
2023/02/27 22:12:03;;;;;;;3.53;2.78;;;2.60;49.20;;;;;;4961790;28;20675;-73
2023/02/27 22:14:50;;;;;;;6.05;3.75;;;2.60;49.00;;;;;;4965857;28;20283;-73
2023/02/27 22:17:35;;;;;;;7.30;3.60;;;2.60;49.10;;;;;;4967093;28;20238;-73
2023/02/27 22:20:21;;;;;;;6.65;3.78;;;2.50;49.60;;;;;;4963139;28;20887;-72
2023/02/27 22:23:07;;;;;;;5.75;3.50;;;2.50;49.70;;;;;;4966386;28;20669;-73
2023/02/27 22:26:00;;;;;;;5.60;3.90;;;2.40;50.70;;;;;;4962954;28;20205;-72
2023/02/27 22:28:46;;;;;;;5.55;3.20;;;2.40;50.00;;;;;;4966439;28;20232;-73
2023/02/27 22:31:34;;;;;;;4.80;3.15;;;2.40;50.80;;;;;;4962748;28;20248;-73
2023/02/27 22:34:20;;;;;;;5.35;3.33;;;2.30;50.90;;;;;;4963170;28;20293;-73
2023/02/27 22:37:06;;;;;;;4.93;3.38;;;2.10;51.60;;;;;;4967919;28;20266;-73
2023/02/27 22:39:51;;;;;;;5.05;2.50;;;2.20;52.30;;;;;;4965779;28;20208;-72
2023/02/27 22:42:37;;;;;;;4.90;2.65;;;2.10;51.80;;;;;;4966866;28;20337;-72
2023/02/27 22:45:23;;;;;;;3.85;2.40;;;2.10;52.00;;;;;;4969824;28;20212;-72
2023/02/27 22:48:10;;;;;;;4.13;2.50;;;2.10;52.70;;;;;;4961559;28;20239;-72
2023/02/27 22:51:01;;;;;;;6.00;4.00;;;2.00;53.00;;;;;;4961831;28;20284;-73
2023/02/27 22:53:47;;;;;;;3.03;2.30;;;1.90;54.60;;;;;;4972500;28;20291;-73
2023/02/27 22:56:35;;;;;;;3.75;2.30;;;1.90;55.40;;;;;;4967780;28;20295;-72
2023/02/27 22:59:21;;;;;;;2.92;2.10;;;1.90;55.90;;;;;;4972560;28;20208;-72
2023/02/27 23:02:07;;;;;;;4.97;2.35;;;2.00;54.60;;;;;;4973204;28;20947;-73
2023/02/27 23:04:54;;;;;;;3.78;2.10;;;1.90;56.80;;;;;;4971468;28;20208;-73
2023/02/27 23:07:41;;;;;;;2.75;2.10;;;1.90;57.00;;;;;;4967138;28;20236;-73
2023/02/27 23:10:26;;;;;;;4.75;2.67;;;1.70;58.70;;;;;;4968203;28;20279;-73
2023/02/27 23:13:12;;;;;;;3.08;2.20;;;1.80;57.60;;;;;;4972026;28;20212;-73
2023/02/27 23:15:58;;;;;;;4.00;2.30;;;1.90;57.20;;;;;;4970954;28;20294;-73
2023/02/27 23:18:46;;;;;;;7.28;2.90;;;1.90;57.10;;;;;;4967136;28;20220;-73
2023/02/27 23:21:35;;;;;;;16.05;2.75;;;1.90;56.70;;;;;;4966240;28;20212;-73
2023/02/27 23:24:21;;;;;;;3.58;2.22;;;2.00;57.10;;;;;;4969274;28;20208;-73
2023/02/27 23:27:10;;;;;;;4.88;2.65;;;2.10;56.50;;;;;;4968994;28;20229;-73
2023/02/27 23:29:55;;;;;;;2.90;2.22;;;2.10;56.60;;;;;;4967975;28;20235;-73
2023/02/27 23:32:43;;;;;;;5.03;2.90;;;2.10;56.40;;;;;;4969106;28;20217;-73
2023/02/27 23:35:29;;;;;;;3.13;2.22;;;2.00;56.60;;;;;;4969749;28;20693;-73
2023/02/27 23:38:16;;;;;;;3.63;2.75;;;2.10;57.00;;;;;;4969012;28;20212;-73
2023/02/27 23:41:06;;;;;;;3.08;2.17;;;1.90;57.30;;;;;;4967304;28;20291;-72
2023/02/27 23:43:52;;;;;;;4.45;2.55;;;1.90;57.90;;;;;;4970829;28;20360;-71
2023/02/27 23:46:39;;;;;;;5.38;2.60;;;2.00;57.70;;;;;;4967320;28;20322;-71
2023/02/27 23:49:25;;;;;;;4.90;2.40;;;2.00;58.60;;;;;;4966467;28;20233;-71
2023/02/27 23:52:10;;;;;;;4.45;3.03;;;2.00;58.40;;;;;;4968314;28;20221;-71
2023/02/27 23:54:57;;;;;;;5.47;2.97;;;2.00;58.20;;;;;;4967482;28;20205;-71
2023/02/27 23:57:43;;;;;;;4.00;2.55;;;2.10;58.30;;;;;;4972084;28;20275;-71
